Time;durP1;ratioP1;P1;durP2;ratioP2;P2;SDS_P1;SDS_P2;PMS_P1;PMS_P2;Temp;Humidity;BMP_temperature;BMP_pressure;BME280_temperature;BME280_humidity;BME280_pressure;Samples;Min_cycle;Max_cycle;Signal;HPM_P1;HPM_P2
2021/12/24 00:01:38;;;;;;;0.13;0.13;;;;;;;23.08;8.38;97986.34;5080259;28;20107;-78
2021/12/24 00:04:04;;;;;;;0.20;0.20;;;;;;;23.05;8.19;97983.16;5080434;28;20020;-78
2021/12/24 00:06:30;;;;;;;0.10;0.10;;;;;;;23.05;8.08;97977.72;5114945;28;20023;-78
2021/12/24 00:08:56;;;;;;;0.10;0.10;;;;;;;23.05;8.26;97972.25;5114993;28;20031;-77
2021/12/24 00:11:22;;;;;;;0.10;0.10;;;;;;;23.05;8.06;97969.53;5111468;28;20137;-78
2021/12/24 00:13:49;;;;;;;0.10;0.10;;;;;;;23.06;8.12;97967.63;5114887;28;20028;-77
2021/12/24 00:16:25;;;;;;;0.20;0.20;;;;;;;23.05;8.01;97961.38;5114988;28;20034;-78
2021/12/24 00:35:13;;;;;;;0.38;0.20;;;;;;;23.04;7.90;97981.56;5023671;28;20040;-78
2021/12/24 00:37:40;;;;;;;0.10;0.10;;;;;;;23.02;7.88;97988.44;5051493;28;20033;-77
2021/12/24 00:42:34;;;;;;;0.10;0.10;;;;;;;23.01;7.96;97982.19;5019557;28;20021;-78
2021/12/24 00:45:00;;;;;;;0.10;0.10;;;;;;;23.02;7.83;97980.25;5035019;28;20510;-78
2021/12/24 00:47:25;;;;;;;0.22;0.20;;;;;;;23.03;7.77;97984.59;5023244;28;20029;-78
2021/12/24 00:49:52;;;;;;;0.20;0.20;;;;;;;23.00;7.89;97986.03;5035064;28;20407;-78
2021/12/24 00:52:21;;;;;;;0.10;0.10;;;;;;;22.99;7.86;97984.47;5051300;28;20433;-78
2021/12/24 00:57:49;;;;;;;0.10;0.10;;;;;;;23.01;7.64;97979.47;5011838;28;20453;-78
2021/12/24 01:00:25;;;;;;;0.10;0.10;;;;;;;23.03;7.74;97971.78;5051413;28;20067;-78
2021/12/24 01:02:52;;;;;;;0.10;0.10;;;;;;;23.00;7.73;97977.88;5051470;28;20025;-78
2021/12/24 01:05:17;;;;;;;0.10;0.10;;;;;;;22.98;7.78;97977.41;5051492;28;20037;-78
2021/12/24 01:07:46;;;;;;;0.10;0.10;;;;;;;22.98;7.75;97977.41;5068343;28;20092;-78
2021/12/24 01:10:13;;;;;;;0.10;0.10;;;;;;;22.98;7.82;97982.06;5050975;28;20049;-78
2021/12/24 01:12:38;;;;;;;0.10;0.10;;;;;;;22.99;7.69;97979.00;5051145;28;20199;-78
2021/12/24 01:15:04;;;;;;;0.10;0.10;;;;;;;22.98;7.61;97980.13;5051072;28;20048;-78
2021/12/24 01:20:04;;;;;;;0.10;0.10;;;;;;;22.97;7.80;97969.56;5051277;28;20045;-78
2021/12/24 01:25:12;;;;;;;0.57;0.13;;;;;;;22.96;7.93;97963.31;5034826;28;20428;-77
2021/12/24 01:38:19;;;;;;;0.10;0.10;;;;;;;23.00;7.58;97961.53;5077899;28;20089;-77
2021/12/24 01:43:16;;;;;;;0.20;0.20;;;;;;;22.95;7.49;97953.53;5093179;28;20435;-78
2021/12/24 01:45:42;;;;;;;0.10;0.10;;;;;;;22.96;7.47;97957.88;5075010;28;20052;-77
2021/12/24 01:48:09;;;;;;;0.10;0.10;;;;;;;22.94;7.76;97962.03;5071789;28;20027;-79
2021/12/24 01:50:35;;;;;;;0.20;0.20;;;;;;;22.94;7.60;97965.59;5078971;28;20027;-77
2021/12/24 01:53:03;;;;;;;0.10;0.10;;;;;;;22.93;7.48;97963.97;5080475;28;20077;-77
2021/12/24 01:55:28;;;;;;;0.10;0.10;;;;;;;22.93;7.69;97963.19;5079104;28;20031;-78
2021/12/24 01:57:54;;;;;;;0.10;0.10;;;;;;;22.93;7.43;97953.06;5078865;28;20620;-78
2021/12/24 02:00:30;;;;;;;0.10;0.10;;;;;;;22.93;7.56;97955.81;5097937;28;20028;-78
2021/12/24 02:02:56;;;;;;;0.10;0.10;;;;;;;22.97;7.45;97959.44;5100857;28;20024;-78
2021/12/24 02:05:22;;;;;;;0.10;0.10;;;;;;;22.96;7.52;97943.47;5082313;28;20473;-77
2021/12/24 02:07:47;;;;;;;0.10;0.10;;;;;;;22.93;7.51;97947.63;5082142;28;20389;-77
2021/12/24 02:10:14;;;;;;;0.15;0.15;;;;;;;22.95;7.41;97945.38;5087348;28;20043;-78
2021/12/24 02:12:39;;;;;;;0.10;0.10;;;;;;;22.94;7.43;97949.25;5099356;28;20023;-78
2021/12/24 02:15:10;;;;;;;0.10;0.10;;;;;;;22.95;7.51;97950.81;5117339;28;20030;-78
2021/12/24 02:28:41;;;;;;;0.10;0.10;;;;;;;22.97;7.43;97934.16;5116998;28;20041;-77
2021/12/24 02:31:08;;;;;;;0.10;0.10;;;;;;;22.93;7.56;97920.41;5117144;28;20034;-78
2021/12/24 02:33:34;;;;;;;0.20;0.20;;;;;;;22.93;7.48;97920.41;5117124;28;20027;-78
2021/12/24 02:35:59;;;;;;;0.15;0.15;;;;;;;22.90;7.41;97921.06;5115345;28;20484;-78
2021/12/24 02:38:25;;;;;;;0.13;0.13;;;;;;;22.92;7.57;97913.38;5098669;28;20029;-78
2021/12/24 02:40:50;;;;;;;0.20;0.20;;;;;;;22.91;7.51;97917.22;5115322;28;20027;-77
2021/12/24 02:43:19;;;;;;;0.10;0.10;;;;;;;22.93;7.39;97919.59;5098361;28;20036;-77
2021/12/24 02:45:47;;;;;;;0.10;0.10;;;;;;;22.91;7.42;97919.94;5116345;28;20470;-77
2021/12/24 02:53:57;;;;;;;0.10;0.10;;;;;;;22.92;7.35;97918.00;5115376;28;20097;-78
2021/12/24 02:56:31;;;;;;;0.10;0.10;;;;;;;22.90;7.29;97925.72;5116270;28;20115;-77
2021/12/24 02:58:58;;;;;;;0.20;0.20;;;;;;;22.93;7.38;97914.16;5082860;28;20102;-77
2021/12/24 03:01:27;;;;;;;0.10;0.10;;;;;;;22.91;7.41;97921.88;5098119;28;20115;-77
2021/12/24 03:03:52;;;;;;;0.10;0.10;;;;;;;22.90;7.36;97918.31;5116392;28;20027;-78
2021/12/24 03:06:19;;;;;;;0.10;0.10;;;;;;;22.89;7.42;97903.13;5116333;28;20098;-77
2021/12/24 03:08:44;;;;;;;0.20;0.20;;;;;;;22.88;7.39;97912.41;5116007;28;20027;-78
2021/12/24 03:11:10;;;;;;;0.10;0.10;;;;;;;22.89;7.36;97914.03;5132221;27;20034;-78
2021/12/24 03:13:36;;;;;;;0.10;0.10;;;;;;;22.89;7.33;97908.56;5136524;27;20098;-77
2021/12/24 03:16:02;;;;;;;0.10;0.10;;;;;;;22.88;7.38;97906.97;5101560;27;20039;-77
2021/12/24 03:18:30;;;;;;;0.10;0.10;;;;;;;22.89;7.29;97903.13;5136722;27;20110;-78
2021/12/24 03:21:08;;;;;;;0.10;0.10;;;;;;;22.89;7.32;97908.56;5136580;27;20098;-78
2021/12/24 03:24:33;;;;;;;0.10;0.10;;;;;;;22.89;7.31;97908.56;5120108;27;20031;-77
2021/12/24 03:26:19;;;;;;;0.10;0.10;;;;;;;22.90;7.26;97910.16;5134945;27;20039;-77
2021/12/24 03:28:45;;;;;;;0.20;0.20;;;;;;;22.90;7.18;97909.38;5136396;27;20034;-77
2021/12/24 03:31:10;;;;;;;0.17;0.17;;;;;;;22.88;7.19;97906.97;5136801;27;20446;-77
2021/12/24 03:33:36;;;;;;;0.20;0.20;;;;;;;22.87;7.29;97910.84;5136310;27;20466;-77
2021/12/24 03:36:03;;;;;;;0.10;0.10;;;;;;;22.86;7.16;97914.69;5117844;27;20472;-77
2021/12/24 03:38:29;;;;;;;0.13;0.13;;;;;;;22.88;7.24;97906.97;5136274;27;20068;-78
2021/12/24 03:40:54;;;;;;;0.10;0.10;;;;;;;22.87;7.11;97905.41;5136492;27;20468;-78
2021/12/24 03:43:20;;;;;;;0.10;0.10;;;;;;;22.86;7.19;97904.56;5135870;27;20077;-78
2021/12/24 03:45:57;;;;;;;0.10;0.10;;;;;;;22.87;7.23;97908.13;5135890;27;20023;-77
2021/12/24 03:48:29;;;;;;;0.10;0.10;;;;;;;22.86;7.11;97909.22;5135645;27;20495;-78
2021/12/24 03:51:03;;;;;;;0.10;0.10;;;;;;;22.86;7.08;97903.78;5136181;27;20038;-78
2021/12/24 03:56:15;;;;;;;0.10;0.10;;;;;;;22.88;6.99;97883.25;5136185;27;20037;-78
2021/12/24 03:58:40;;;;;;;0.10;0.10;;;;;;;22.87;7.13;97880.88;5136027;27;20038;-78
2021/12/24 04:01:06;;;;;;;0.10;0.10;;;;;;;22.86;6.93;97887.44;5136297;27;20027;-78
2021/12/24 04:03:31;;;;;;;0.20;0.20;;;;;;;22.86;6.97;97893.69;5135857;27;20027;-78
2021/12/24 04:05:56;;;;;;;0.22;0.22;;;;;;;22.86;7.04;97892.91;5135954;27;20023;-78
2021/12/24 04:08:22;;;;;;;0.10;0.10;;;;;;;22.85;6.97;97885.84;5118297;27;20031;-77
2021/12/24 04:10:49;;;;;;;0.10;0.10;;;;;;;22.85;6.91;97883.13;5117455;27;20395;-77
2021/12/24 04:13:15;;;;;;;0.10;0.10;;;;;;;22.85;6.95;97880.41;5102080;27;20027;-78
2021/12/24 04:15:41;;;;;;;0.20;0.20;;;;;;;22.84;7.00;97884.25;5126876;27;20046;-77
2021/12/24 04:18:14;;;;;;;0.22;0.20;;;;;;;22.86;6.98;97882.00;5128315;27;20155;-77
2021/12/24 04:26:07;;;;;;;0.10;0.10;;;;;;;22.88;6.99;97877.00;5120140;27;20042;-78
2021/12/24 04:28:33;;;;;;;0.10;0.10;;;;;;;22.85;6.83;97881.22;5135690;27;20027;-77
2021/12/24 04:31:00;;;;;;;0.22;0.22;;;;;;;22.86;6.78;97876.56;5147129;27;20061;-77
2021/12/24 04:33:31;;;;;;;0.10;0.10;;;;;;;22.85;6.84;97864.06;5150812;27;20484;-78
2021/12/24 04:36:36;;;;;;;0.10;0.10;;;;;;;22.84;6.95;97857.03;5135802;27;20024;-78
2021/12/24 05:03:09;;;;;;;0.20;0.20;;;;;;;22.85;6.56;97845.81;5060415;28;20083;-77
2021/12/24 05:05:51;;;;;;;0.10;0.10;;;;;;;22.83;6.47;97839.88;5071667;28;20123;-77
2021/12/24 05:08:21;;;;;;;0.20;0.20;;;;;;;22.82;6.39;97829.34;5057165;28;20064;-77
2021/12/24 05:10:48;;;;;;;0.10;0.10;;;;;;;22.83;6.38;97839.09;5055208;28;20068;-77
2021/12/24 05:13:15;;;;;;;0.10;0.10;;;;;;;22.83;6.42;97837.16;5055408;28;20077;-77
2021/12/24 05:15:43;;;;;;;0.10;0.10;;;;;;;22.82;6.25;97832.84;5055675;28;20075;-78
2021/12/24 05:23:18;;;;;;;0.20;0.20;;;;;;;22.83;6.12;97833.63;5072931;28;20040;-78
2021/12/24 05:25:45;;;;;;;0.10;0.10;;;;;;;22.83;6.14;97834.44;5071630;28;20029;-78
2021/12/24 05:28:10;;;;;;;0.22;0.22;;;;;;;22.83;5.94;97828.19;5071522;28;20127;-78
2021/12/24 05:30:35;;;;;;;0.20;0.20;;;;;;;22.83;5.96;97825.47;5071316;28;20029;-78
2021/12/24 05:33:01;;;;;;;0.22;0.22;;;;;;;22.81;6.01;97820.34;5055026;28;20505;-78
2021/12/24 05:35:26;;;;;;;0.30;0.30;;;;;;;22.82;5.81;97815.72;5108723;27;20042;-78
2021/12/24 05:37:51;;;;;;;0.20;0.20;;;;;;;22.82;5.84;97818.44;5139500;27;20075;-77
2021/12/24 05:40:17;;;;;;;0.20;0.20;;;;;;;22.80;5.90;97818.78;5139245;27;20035;-77
2021/12/24 05:42:42;;;;;;;0.20;0.20;;;;;;;22.81;5.74;97814.91;5139592;27;20035;-77
2021/12/24 05:45:10;;;;;;;0.20;0.20;;;;;;;22.82;5.65;97810.28;5139734;27;20023;-77
2021/12/24 05:47:35;;;;;;;0.20;0.20;;;;;;;22.81;5.70;97803.22;5139502;27;20023;-78
2021/12/24 05:50:01;;;;;;;0.20;0.20;;;;;;;22.80;5.55;97804.34;5139105;27;20033;-78
2021/12/24 05:52:26;;;;;;;0.20;0.20;;;;;;;22.79;5.55;97800.84;5120901;27;20028;-77
2021/12/24 05:54:52;;;;;;;0.25;0.25;;;;;;;22.78;5.63;97798.44;5139745;27;20027;-78
2021/12/24 05:57:17;;;;;;;0.20;0.20;;;;;;;22.78;5.55;97788.34;5122052;27;20362;-77
2021/12/24 05:59:43;;;;;;;0.20;0.20;;;;;;;22.79;5.47;97781.00;5123004;27;20023;-77
2021/12/24 06:02:08;;;;;;;0.28;0.20;;;;;;;22.78;5.60;97782.88;5138348;27;20023;-77
2021/12/24 06:04:34;;;;;;;0.10;0.10;;;;;;;22.79;5.39;97783.72;5120128;27;20046;-77
2021/12/24 06:06:59;;;;;;;0.30;0.30;;;;;;;22.78;5.41;97791.06;5138020;27;20464;-77
2021/12/24 06:09:24;;;;;;;0.20;0.20;;;;;;;22.81;5.31;97786.91;5138031;27;20024;-77
2021/12/24 06:11:50;;;;;;;0.20;0.20;;;;;;;22.80;5.50;97788.00;5137759;27;20051;-77
2021/12/24 06:14:15;;;;;;;0.22;0.10;;;;;;;22.78;5.29;97787.56;5119710;27;20019;-77
2021/12/24 06:16:48;;;;;;;0.20;0.20;;;;;;;22.79;5.29;97786.44;5137831;27;20052;-77
2021/12/24 06:19:14;;;;;;;0.20;0.20;;;;;;;22.78;5.38;97782.88;5120669;27;20027;-77
2021/12/24 06:21:40;;;;;;;0.20;0.20;;;;;;;22.78;5.32;97787.56;5119365;27;20350;-77
2021/12/24 06:24:05;;;;;;;0.20;0.20;;;;;;;22.78;5.24;97782.88;5137810;27;20023;-77
2021/12/24 06:26:30;;;;;;;0.20;0.20;;;;;;;22.78;5.31;97782.88;5137841;27;20497;-77
2021/12/24 06:28:56;;;;;;;0.20;0.20;;;;;;;22.79;5.20;97781.00;5137501;27;20461;-77
2021/12/24 06:31:21;;;;;;;0.20;0.20;;;;;;;22.79;5.28;97789.94;5137686;27;20035;-77
2021/12/24 06:33:47;;;;;;;0.20;0.20;;;;;;;22.78;5.07;97782.09;5137820;27;20110;-77
2021/12/24 06:36:12;;;;;;;0.32;0.32;;;;;;;22.78;5.21;97784.81;5137459;27;20030;-77
2021/12/24 06:38:38;;;;;;;0.20;0.20;;;;;;;22.78;5.08;97779.38;5101333;27;20031;-78
2021/12/24 06:41:03;;;;;;;0.22;0.22;;;;;;;22.78;5.14;97779.38;5137258;27;20027;-78
2021/12/24 06:43:29;;;;;;;0.30;0.20;;;;;;;22.78;4.91;97769.28;5137418;27;20027;-78
2021/12/24 06:45:54;;;;;;;0.30;0.30;;;;;;;22.78;5.17;97776.66;5136313;27;20023;-79
2021/12/24 06:48:21;;;;;;;0.25;0.25;;;;;;;22.77;5.40;97764.19;5125190;27;20019;-77
2021/12/24 06:50:46;;;;;;;0.30;0.30;;;;;;;22.77;5.15;97772.38;5116527;28;20606;-77
2021/12/24 06:53:12;;;;;;;0.20;0.20;;;;;;;22.78;5.04;97771.22;5117308;28;20033;-77
2021/12/24 06:55:37;;;;;;;0.28;0.28;;;;;;;22.77;5.25;97764.97;5116879;28;20024;-78
2021/12/24 06:58:03;;;;;;;0.30;0.30;;;;;;;22.79;5.22;97772.81;5098387;28;20031;-77
2021/12/24 07:00:28;;;;;;;0.20;0.20;;;;;;;22.76;5.13;97762.59;5098128;28;20076;-77
2021/12/24 07:02:54;;;;;;;0.30;0.30;;;;;;;22.77;5.21;97759.53;5117333;28;20027;-77
2021/12/24 07:05:20;;;;;;;0.22;0.22;;;;;;;22.78;5.28;97766.56;5081635;28;20026;-78
2021/12/24 07:07:45;;;;;;;0.30;0.30;;;;;;;22.75;5.41;97759.06;5098555;28;20034;-77
2021/12/24 07:10:11;;;;;;;0.20;0.20;;;;;;;22.78;5.34;97763.84;5122547;27;20039;-78
2021/12/24 07:12:36;;;;;;;0.30;0.30;;;;;;;22.77;5.42;97764.19;5137226;27;20418;-77
2021/12/24 07:15:02;;;;;;;0.43;0.30;;;;;;;22.76;5.41;97760.66;5136951;27;20039;-78
2021/12/24 07:17:28;;;;;;;0.30;0.30;;;;;;;22.77;5.45;97750.59;5136641;27;20034;-77
2021/12/24 07:19:53;;;;;;;0.35;0.20;;;;;;;22.77;5.39;97745.91;5136383;27;20380;-77
2021/12/24 07:22:18;;;;;;;0.20;0.20;;;;;;;22.76;5.47;97749.75;5136889;27;20019;-77
2021/12/24 07:24:44;;;;;;;0.20;0.20;;;;;;;22.78;5.53;97749.44;5117991;27;20023;-77
2021/12/24 07:27:10;;;;;;;0.30;0.30;;;;;;;22.77;5.46;97753.31;5136353;27;20130;-78
2021/12/24 07:29:36;;;;;;;0.30;0.30;;;;;;;22.76;5.47;97749.75;5118102;27;20034;-78
2021/12/24 07:32:02;;;;;;;0.30;0.30;;;;;;;22.76;5.41;97751.69;5136732;27;20039;-78
2021/12/24 07:34:27;;;;;;;0.40;0.40;;;;;;;22.75;5.46;97750.91;5117892;27;20388;-78
2021/12/24 07:36:53;;;;;;;0.20;0.20;;;;;;;22.76;5.44;97740.81;5100990;27;20030;-77
2021/12/24 07:39:18;;;;;;;0.30;0.30;;;;;;;22.75;5.37;97744.66;5136823;27;20039;-77
2021/12/24 07:41:44;;;;;;;0.30;0.30;;;;;;;22.75;5.35;97737.28;5117665;27;20099;-78
2021/12/24 07:44:09;;;;;;;0.40;0.40;;;;;;;22.75;5.35;97739.19;5101026;27;20030;-78
2021/12/24 07:46:46;;;;;;;0.30;0.25;;;;;;;22.76;5.34;97735.38;5117638;27;20045;-77
2021/12/24 07:49:29;;;;;;;0.30;0.30;;;;;;;22.76;5.35;97735.38;5119580;27;20409;-77
2021/12/24 07:54:25;;;;;;;0.30;0.30;;;;;;;22.76;5.35;97729.91;5118623;27;20035;-77
2021/12/24 07:56:51;;;;;;;0.30;0.30;;;;;;;22.75;5.42;97723.69;5117636;27;20138;-77
2021/12/24 07:59:16;;;;;;;0.20;0.20;;;;;;;22.76;5.37;97727.19;5101065;27;20054;-77
2021/12/24 08:01:45;;;;;;;0.28;0.28;;;;;;;22.74;5.39;97721.28;5117409;27;20027;-77
2021/12/24 08:04:11;;;;;;;0.20;0.20;;;;;;;22.74;5.41;97732.19;5117664;27;20030;-77
2021/12/24 08:06:36;;;;;;;0.30;0.30;;;;;;;22.74;5.31;97726.72;5100612;27;20019;-77
2021/12/24 08:09:02;;;;;;;0.30;0.30;;;;;;;22.73;5.31;97725.13;5117350;27;20015;-78
2021/12/24 08:11:28;;;;;;;0.28;0.28;;;;;;;22.74;5.44;97729.47;5135158;27;20518;-77
2021/12/24 08:13:53;;;;;;;0.20;0.20;;;;;;;22.74;5.45;97718.56;5135585;27;20019;-77
2021/12/24 08:16:19;;;;;;;0.40;0.40;;;;;;;22.74;5.41;97718.56;5135630;27;20019;-78
2021/12/24 08:18:45;;;;;;;0.30;0.30;;;;;;;22.73;5.45;97714.25;5135541;27;20354;-77
2021/12/24 08:21:10;;;;;;;0.43;0.40;;;;;;;22.74;5.48;97710.41;5135906;27;20027;-77
2021/12/24 08:23:36;;;;;;;0.50;0.50;;;;;;;22.75;5.46;97711.97;5135387;27;20038;-77
2021/12/24 08:26:01;;;;;;;0.40;0.40;;;;;;;22.75;5.35;97711.97;5135161;27;20084;-77
2021/12/24 08:28:27;;;;;;;0.40;0.40;;;;;;;22.73;5.42;97717.75;5135009;27;20034;-77
2021/12/24 08:30:53;;;;;;;0.50;0.50;;;;;;;22.73;5.57;97711.53;5135356;27;20030;-77
2021/12/24 08:33:19;;;;;;;0.68;0.68;;;;;;;22.73;5.50;97706.06;5135192;27;20015;-77
2021/12/24 08:35:44;;;;;;;0.77;0.60;;;;;;;22.74;5.58;97699.50;5135274;27;20034;-77
2021/12/24 08:38:09;;;;;;;0.60;0.60;;;;;;;22.74;5.46;97699.50;5134959;27;20034;-77
2021/12/24 08:40:35;;;;;;;0.60;0.60;;;;;;;22.73;5.42;97703.34;5116837;27;20026;-77
2021/12/24 08:43:01;;;;;;;0.60;0.60;;;;;;;22.73;5.60;97708.78;5135160;27;20019;-77
2021/12/24 08:45:26;;;;;;;0.50;0.50;;;;;;;22.72;5.60;97702.56;5116888;27;20030;-77
2021/12/24 08:47:51;;;;;;;0.40;0.40;;;;;;;22.74;5.58;97705.75;5140987;27;20420;-77
2021/12/24 08:50:17;;;;;;;0.60;0.60;;;;;;;22.73;5.65;97703.34;5120065;27;20540;-77
2021/12/24 08:52:44;;;;;;;0.40;0.40;;;;;;;22.72;5.70;97702.56;5155249;27;20473;-78
2021/12/24 08:55:10;;;;;;;0.43;0.43;;;;;;;22.74;5.64;97700.31;5155463;27;20050;-77
2021/12/24 08:57:37;;;;;;;0.30;0.30;;;;;;;22.72;5.66;97697.13;5155451;27;20095;-77
2021/12/24 09:00:04;;;;;;;0.32;0.32;;;;;;;22.72;5.77;97694.41;5155877;27;20100;-78
2021/12/24 09:02:29;;;;;;;0.30;0.30;;;;;;;22.72;5.66;97699.06;5155970;27;20027;-77
2021/12/24 09:04:54;;;;;;;0.30;0.30;;;;;;;22.74;5.78;97691.34;5156386;27;20079;-77
2021/12/24 09:07:20;;;;;;;0.50;0.50;;;;;;;22.73;5.61;97687.03;5155391;27;20476;-77
2021/12/24 09:09:45;;;;;;;0.35;0.35;;;;;;;22.73;5.75;97692.47;5136100;27;20815;-77
2021/12/24 09:12:11;;;;;;;0.40;0.40;;;;;;;22.72;5.62;97696.34;5155231;27;20027;-77
2021/12/24 09:14:36;;;;;;;0.40;0.40;;;;;;;22.72;5.70;97693.63;5155284;27;20026;-77
2021/12/24 09:17:02;;;;;;;0.30;0.30;;;;;;;22.73;5.78;97698.69;5154847;27;20354;-77
2021/12/24 09:19:29;;;;;;;0.30;0.30;;;;;;;22.72;5.64;97690.88;5155541;27;20022;-77
2021/12/24 09:21:56;;;;;;;0.30;0.30;;;;;;;22.73;5.61;97689.75;5155138;27;20465;-78
2021/12/24 09:24:24;;;;;;;0.40;0.40;;;;;;;22.71;5.73;97694.72;5155347;27;20034;-78
2021/12/24 09:26:54;;;;;;;0.40;0.40;;;;;;;22.73;5.74;97693.25;5137199;27;20030;-77
2021/12/24 09:29:19;;;;;;;0.40;0.40;;;;;;;22.74;5.77;97685.91;5155328;27;20019;-78
2021/12/24 09:31:45;;;;;;;0.40;0.40;;;;;;;22.73;5.78;97676.13;5119455;27;20031;-77
2021/12/24 09:34:10;;;;;;;0.45;0.40;;;;;;;22.72;5.91;97677.28;5136398;27;20444;-77
2021/12/24 09:36:37;;;;;;;0.30;0.30;;;;;;;22.72;5.78;97680.00;5136437;27;20031;-77
2021/12/24 09:39:05;;;;;;;0.22;0.22;;;;;;;22.72;5.85;97674.56;5136640;27;20019;-77
2021/12/24 09:41:30;;;;;;;0.30;0.30;;;;;;;22.71;5.92;97675.66;5155231;27;20445;-77
2021/12/24 09:43:58;;;;;;;0.20;0.20;;;;;;;22.73;5.97;97681.56;5136624;27;20050;-77
2021/12/24 09:46:25;;;;;;;0.43;0.43;;;;;;;22.71;5.99;97672.94;5136960;27;20031;-77
2021/12/24 09:48:50;;;;;;;0.30;0.30;;;;;;;22.73;5.88;97670.69;5106142;28;20072;-77
2021/12/24 09:51:16;;;;;;;0.40;0.40;;;;;;;22.72;5.98;97667.19;5116011;28;20019;-77
2021/12/24 09:53:41;;;;;;;0.30;0.30;;;;;;;22.73;5.94;97663.31;5116135;28;20068;-78
2021/12/24 09:56:06;;;;;;;0.22;0.22;;;;;;;22.72;5.99;97658.22;5115745;28;20027;-78
2021/12/24 09:58:32;;;;;;;0.50;0.50;;;;;;;22.72;6.00;97658.22;5134173;28;20023;-77
2021/12/24 10:00:57;;;;;;;0.40;0.40;;;;;;;22.72;6.07;97663.66;5134368;28;20023;-77
2021/12/24 10:03:36;;;;;;;0.55;0.50;;;;;;;22.76;6.03;97664.56;5134380;28;20034;-77
2021/12/24 10:06:02;;;;;;;0.30;0.30;;;;;;;22.73;6.00;97659.78;5127907;28;20023;-78
2021/12/24 10:08:28;;;;;;;0.40;0.40;;;;;;;22.73;5.90;97657.06;5139436;28;20062;-78
2021/12/24 10:11:08;;;;;;;0.40;0.40;;;;;;;22.75;6.12;97665.69;5104384;28;20474;-78
2021/12/24 10:13:39;;;;;;;0.40;0.40;;;;;;;22.73;6.01;97659.78;5116884;28;20023;-77
2021/12/24 10:16:08;;;;;;;0.43;0.43;;;;;;;22.73;6.07;97662.50;5117030;28;20043;-77
2021/12/24 10:18:37;;;;;;;0.38;0.38;;;;;;;22.70;6.14;97666.72;5103138;28;20035;-78
2021/12/24 10:21:16;;;;;;;0.50;0.50;;;;;;;22.75;6.00;97661.06;5093757;28;20028;-78
2021/12/24 10:23:44;;;;;;;0.40;0.40;;;;;;;22.71;6.19;97656.63;5129437;28;20034;-78
2021/12/24 10:26:11;;;;;;;0.60;0.60;;;;;;;22.69;6.07;97655.00;5122896;28;20050;-78
2021/12/24 10:28:36;;;;;;;0.40;0.40;;;;;;;22.71;6.01;97656.63;5082501;28;20027;-78
2021/12/24 10:31:02;;;;;;;0.63;0.30;;;;;;;22.72;6.26;97650.84;5098931;28;20032;-77
2021/12/24 10:33:27;;;;;;;0.30;0.30;;;;;;;22.73;6.10;97648.91;5117057;28;20440;-78
2021/12/24 10:36:02;;;;;;;0.50;0.50;;;;;;;22.73;6.25;97649.69;5098867;28;20032;-77
2021/12/24 10:38:27;;;;;;;0.40;0.40;;;;;;;22.69;6.27;97644.13;5116584;28;20030;-77
2021/12/24 10:40:55;;;;;;;0.47;0.40;;;;;;;22.68;6.29;97642.56;5081868;28;20031;-78
2021/12/24 10:43:49;;;;;;;0.28;0.28;;;;;;;22.80;6.43;97632.81;5116817;28;20034;-78
2021/12/24 10:46:19;;;;;;;0.30;0.30;;;;;;;22.75;6.34;97639.28;5014391;28;20384;-78
2021/12/24 10:49:13;;;;;;;0.30;0.30;;;;;;;22.78;6.43;97630.44;5014165;28;20069;-77
2021/12/24 10:52:11;;;;;;;0.30;0.30;;;;;;;22.79;6.67;97642.91;4999135;28;20124;-78
2021/12/24 10:54:55;;;;;;;0.40;0.40;;;;;;;22.78;6.39;97640.53;5014144;28;20046;-78
2021/12/24 10:57:23;;;;;;;0.30;0.30;;;;;;;22.74;6.68;97643.13;5014111;28;20390;-78
2021/12/24 10:59:49;;;;;;;0.20;0.20;;;;;;;22.72;6.48;97636.44;5014094;28;20404;-78
2021/12/24 11:02:15;;;;;;;0.20;0.20;;;;;;;22.72;6.41;97648.13;5013982;28;20381;-78
2021/12/24 11:04:40;;;;;;;0.30;0.30;;;;;;;22.72;6.55;97636.44;4997509;28;20040;-78
2021/12/24 11:07:36;;;;;;;0.30;0.30;;;;;;;22.77;6.56;97639.75;5013997;28;20030;-78
2021/12/24 11:10:15;;;;;;;0.32;0.32;;;;;;;22.76;6.48;97631.91;5004337;28;20518;-78
2021/12/24 11:12:53;;;;;;;0.40;0.40;;;;;;;22.74;6.36;97634.19;5033346;28;20028;-78
2021/12/24 11:15:33;;;;;;;0.60;0.40;;;;;;;22.77;6.43;97622.63;5033471;28;20061;-78
2021/12/24 11:18:04;;;;;;;0.35;0.35;;;;;;;22.72;6.41;97614.66;5033837;28;20030;-77
2021/12/24 11:20:30;;;;;;;0.40;0.40;;;;;;;22.71;6.40;97613.84;5050101;28;20042;-77
2021/12/24 11:22:56;;;;;;;0.32;0.32;;;;;;;22.72;6.45;97614.66;5067440;28;20482;-77
2021/12/24 11:25:23;;;;;;;0.30;0.30;;;;;;;22.69;6.42;97614.19;5116219;28;20023;-77
2021/12/24 11:27:48;;;;;;;0.52;0.30;;;;;;;22.71;6.47;97613.84;5098574;28;20039;-77
2021/12/24 11:30:14;;;;;;;0.30;0.30;;;;;;;22.71;6.42;97615.78;5098422;28;20363;-78
2021/12/24 11:32:40;;;;;;;0.30;0.30;;;;;;;22.72;6.41;97617.38;5115226;28;20023;-78
2021/12/24 11:35:05;;;;;;;0.40;0.30;;;;;;;22.72;6.35;97614.66;5115063;28;20420;-77
2021/12/24 11:37:31;;;;;;;0.35;0.35;;;;;;;22.71;6.48;97619.28;5115699;28;20373;-77
2021/12/24 11:39:57;;;;;;;0.38;0.28;;;;;;;22.72;6.33;97617.38;5097879;28;20030;-77
2021/12/24 11:42:22;;;;;;;0.20;0.20;;;;;;;22.73;6.45;97618.97;5097779;28;20068;-79
2021/12/24 11:44:48;;;;;;;0.20;0.20;;;;;;;22.71;6.42;97618.50;5097212;28;20028;-77
2021/12/24 11:47:13;;;;;;;0.20;0.20;;;;;;;22.71;6.50;97622.00;5097183;28;20027;-78
2021/12/24 11:49:39;;;;;;;0.22;0.22;;;;;;;22.71;6.42;97613.06;5114393;28;20044;-77
2021/12/24 11:52:05;;;;;;;0.30;0.30;;;;;;;22.70;6.40;97615.00;5097460;28;20024;-78
2021/12/24 11:54:30;;;;;;;0.30;0.30;;;;;;;22.71;6.42;97613.06;5114376;28;20058;-77
2021/12/24 11:56:56;;;;;;;0.30;0.30;;;;;;;22.71;6.27;97618.50;5097272;28;20024;-77
2021/12/24 11:59:38;;;;;;;0.28;0.28;;;;;;;22.75;6.44;97619.41;5097189;28;20028;-77
2021/12/24 12:02:03;;;;;;;0.20;0.20;;;;;;;22.71;6.33;97622.00;5097341;28;20027;-77
2021/12/24 12:04:29;;;;;;;0.28;0.28;;;;;;;22.71;6.35;97621.22;5097164;28;20519;-78
2021/12/24 12:07:11;;;;;;;0.17;0.17;;;;;;;22.75;6.32;97636.56;5097287;28;20031;-77
2021/12/24 12:09:40;;;;;;;0.30;0.30;;;;;;;22.71;6.30;97629.41;5081241;27;20027;-78
2021/12/24 12:12:06;;;;;;;0.30;0.30;;;;;;;22.71;6.32;97632.13;5100385;27;20023;-77
2021/12/24 12:14:33;;;;;;;0.20;0.20;;;;;;;22.69;6.39;97619.63;5135738;27;20035;-78
2021/12/24 12:17:01;;;;;;;0.30;0.22;;;;;;;22.68;6.38;97620.78;5100762;27;20034;-78
2021/12/24 12:19:44;;;;;;;0.25;0.25;;;;;;;22.70;6.33;97634.06;5101296;27;20030;-78
2021/12/24 12:22:20;;;;;;;0.20;0.20;;;;;;;22.71;6.31;97627.47;5118882;27;20091;-77
2021/12/24 12:24:58;;;;;;;0.20;0.20;;;;;;;22.72;6.31;97631.00;5135693;27;20110;-78
2021/12/24 12:27:37;;;;;;;0.25;0.25;;;;;;;22.71;6.19;97634.84;5135539;27;20019;-78
2021/12/24 12:30:24;;;;;;;0.20;0.20;;;;;;;22.76;6.18;97642.78;5118427;27;20026;-78
2021/12/24 12:32:52;;;;;;;0.30;0.30;;;;;;;22.68;6.26;97637.09;5135518;27;20031;-78
2021/12/24 12:35:17;;;;;;;0.30;0.30;;;;;;;22.71;6.17;97640.28;5100384;27;20154;-78
2021/12/24 12:37:45;;;;;;;0.40;0.30;;;;;;;22.70;6.19;97639.50;5117058;27;20031;-78
2021/12/24 12:40:17;;;;;;;0.30;0.30;;;;;;;22.71;6.22;97640.28;5135359;27;20073;-78
2021/12/24 12:42:48;;;;;;;0.20;0.20;;;;;;;22.70;6.35;97642.22;5134930;27;20026;-78
2021/12/24 12:45:14;;;;;;;0.22;0.22;;;;;;;22.69;6.22;97637.91;5134974;27;20023;-78
2021/12/24 12:47:53;;;;;;;0.30;0.30;;;;;;;22.72;6.30;97641.88;5135118;27;20068;-77
2021/12/24 12:50:19;;;;;;;0.30;0.30;;;;;;;22.66;6.35;97628.47;5093890;28;20043;-78
2021/12/24 12:52:45;;;;;;;0.20;0.20;;;;;;;22.69;6.17;97638.69;5094243;28;20459;-77
2021/12/24 12:55:43;;;;;;;0.40;0.40;;;;;;;22.77;6.34;97628.84;5076156;28;20036;-78
2021/12/24 12:58:34;;;;;;;0.30;0.30;;;;;;;22.77;6.27;97625.34;5051582;28;20045;-77
2021/12/24 13:01:16;;;;;;;0.35;0.35;;;;;;;22.73;6.18;97627.13;5047775;28;20083;-77
2021/12/24 13:03:57;;;;;;;0.20;0.20;;;;;;;22.74;6.21;97631.44;5051408;28;20534;-77
2021/12/24 13:06:41;;;;;;;0.20;0.20;;;;;;;22.73;6.23;97627.91;5051577;28;20486;-77
2021/12/24 13:09:10;;;;;;;;;;;;;;;22.92;6.29;97621.97;5052084;28;20033;-76
2021/12/24 13:11:37;;;;;;;0.30;0.30;;;;;;;22.75;6.21;97622.13;5052296;28;19923;-78
2021/12/24 13:14:02;;;;;;;0.20;0.20;;;;;;;22.71;6.13;97619.28;5054903;28;20487;-78
2021/12/24 13:16:34;;;;;;;0.20;0.20;;;;;;;22.71;6.00;97618.50;5071289;28;20067;-78
2021/12/24 13:19:23;;;;;;;0.20;0.20;;;;;;;22.71;6.18;97637.56;5071327;28;20036;-78
2021/12/24 13:24:50;;;;;;;0.43;0.30;;;;;;;22.71;6.12;97643.00;5071303;28;20039;-78
2021/12/24 13:27:16;;;;;;;0.30;0.30;;;;;;;22.68;6.27;97642.56;5071277;28;20040;-78